sensor_id;sensor_type;location;lat;lon;timestamp;P1;durP1;ratioP1;P2;durP2;ratioP2
51382;SDS011;37475;43.358;1.248;2023-06-04T00:02:05;18.35;;;10.73;;
51382;SDS011;37475;43.358;1.248;2023-06-04T00:04:31;17.95;;;9.65;;
51382;SDS011;37475;43.358;1.248;2023-06-04T00:06:56;16.35;;;10.52;;
51382;SDS011;37475;43.358;1.248;2023-06-04T00:09:22;20.25;;;10.68;;
51382;SDS011;37475;43.358;1.248;2023-06-04T00:11:48;15.73;;;9.95;;
51382;SDS011;37475;43.358;1.248;2023-06-04T00:14:15;17.33;;;10.43;;
51382;SDS011;37475;43.358;1.248;2023-06-04T00:16:41;17.08;;;10.23;;
51382;SDS011;37475;43.358;1.248;2023-06-04T00:19:07;20.25;;;10.02;;
51382;SDS011;37475;43.358;1.248;2023-06-04T00:21:33;14.73;;;10.05;;
51382;SDS011;37475;43.358;1.248;2023-06-04T00:24:00;14.45;;;9.75;;
51382;SDS011;37475;43.358;1.248;2023-06-04T00:26:27;16.27;;;10.52;;
51382;SDS011;37475;43.358;1.248;2023-06-04T00:28:55;24.23;;;11.18;;
51382;SDS011;37475;43.358;1.248;2023-06-04T00:31:21;21.42;;;10.13;;
51382;SDS011;37475;43.358;1.248;2023-06-04T00:33:47;20.90;;;11.75;;
51382;SDS011;37475;43.358;1.248;2023-06-04T00:36:13;20.52;;;11.45;;
51382;SDS011;37475;43.358;1.248;2023-06-04T00:38:39;20.90;;;12.77;;
51382;SDS011;37475;43.358;1.248;2023-06-04T00:41:05;17.23;;;11.00;;
51382;SDS011;37475;43.358;1.248;2023-06-04T00:43:31;18.73;;;11.60;;
51382;SDS011;37475;43.358;1.248;2023-06-04T00:45:57;18.13;;;11.48;;
51382;SDS011;37475;43.358;1.248;2023-06-04T00:48:23;18.02;;;10.25;;
51382;SDS011;37475;43.358;1.248;2023-06-04T00:50:55;22.45;;;11.93;;
51382;SDS011;37475;43.358;1.248;2023-06-04T00:53:21;19.42;;;12.57;;
51382;SDS011;37475;43.358;1.248;2023-06-04T00:55:50;20.38;;;12.40;;
51382;SDS011;37475;43.358;1.248;2023-06-04T00:58:16;18.08;;;11.93;;
51382;SDS011;37475;43.358;1.248;2023-06-04T01:00:43;19.58;;;11.40;;
51382;SDS011;37475;43.358;1.248;2023-06-04T01:03:18;20.92;;;12.65;;
51382;SDS011;37475;43.358;1.248;2023-06-04T01:05:48;18.67;;;11.43;;
51382;SDS011;37475;43.358;1.248;2023-06-04T01:08:24;22.13;;;12.30;;
51382;SDS011;37475;43.358;1.248;2023-06-04T01:10:52;21.80;;;12.38;;
51382;SDS011;37475;43.358;1.248;2023-06-04T01:13:18;19.55;;;12.10;;
51382;SDS011;37475;43.358;1.248;2023-06-04T01:15:44;21.85;;;12.05;;
51382;SDS011;37475;43.358;1.248;2023-06-04T01:18:10;17.45;;;12.20;;
51382;SDS011;37475;43.358;1.248;2023-06-04T01:20:57;19.20;;;12.68;;
51382;SDS011;37475;43.358;1.248;2023-06-04T01:26:29;18.97;;;11.80;;
51382;SDS011;37475;43.358;1.248;2023-06-04T01:28:57;19.13;;;11.00;;
51382;SDS011;37475;43.358;1.248;2023-06-04T01:31:24;16.40;;;10.23;;
51382;SDS011;37475;43.358;1.248;2023-06-04T01:33:54;18.08;;;10.85;;
51382;SDS011;37475;43.358;1.248;2023-06-04T01:36:22;15.43;;;11.18;;
51382;SDS011;37475;43.358;1.248;2023-06-04T01:38:49;23.50;;;11.73;;
51382;SDS011;37475;43.358;1.248;2023-06-04T01:41:15;19.67;;;10.95;;
51382;SDS011;37475;43.358;1.248;2023-06-04T01:43:42;17.73;;;11.10;;
51382;SDS011;37475;43.358;1.248;2023-06-04T01:46:07;19.52;;;10.70;;
51382;SDS011;37475;43.358;1.248;2023-06-04T01:48:33;15.80;;;10.50;;
51382;SDS011;37475;43.358;1.248;2023-06-04T01:51:00;19.27;;;10.32;;
51382;SDS011;37475;43.358;1.248;2023-06-04T01:53:27;19.05;;;10.60;;
51382;SDS011;37475;43.358;1.248;2023-06-04T01:55:52;15.55;;;9.88;;
51382;SDS011;37475;43.358;1.248;2023-06-04T01:58:19;17.45;;;10.63;;
51382;SDS011;37475;43.358;1.248;2023-06-04T02:00:52;16.67;;;10.95;;
51382;SDS011;37475;43.358;1.248;2023-06-04T02:03:20;14.52;;;9.90;;
51382;SDS011;37475;43.358;1.248;2023-06-04T02:05:49;19.33;;;10.93;;
51382;SDS011;37475;43.358;1.248;2023-06-04T02:08:15;16.58;;;10.98;;
51382;SDS011;37475;43.358;1.248;2023-06-04T02:10:45;18.75;;;10.70;;
51382;SDS011;37475;43.358;1.248;2023-06-04T02:13:12;18.02;;;10.93;;
51382;SDS011;37475;43.358;1.248;2023-06-04T02:15:40;18.50;;;11.52;;
51382;SDS011;37475;43.358;1.248;2023-06-04T02:18:13;18.60;;;11.32;;
51382;SDS011;37475;43.358;1.248;2023-06-04T02:20:46;22.42;;;10.93;;
51382;SDS011;37475;43.358;1.248;2023-06-04T02:23:14;18.67;;;10.57;;
51382;SDS011;37475;43.358;1.248;2023-06-04T02:25:42;20.88;;;11.32;;
51382;SDS011;37475;43.358;1.248;2023-06-04T02:28:13;16.52;;;10.18;;
51382;SDS011;37475;43.358;1.248;2023-06-04T02:30:39;18.33;;;11.07;;
51382;SDS011;37475;43.358;1.248;2023-06-04T02:33:04;17.83;;;11.68;;
51382;SDS011;37475;43.358;1.248;2023-06-04T02:35:31;21.92;;;11.43;;
51382;SDS011;37475;43.358;1.248;2023-06-04T02:37:57;22.77;;;11.15;;
51382;SDS011;37475;43.358;1.248;2023-06-04T02:40:26;18.02;;;11.32;;
51382;SDS011;37475;43.358;1.248;2023-06-04T02:42:53;21.75;;;11.43;;
51382;SDS011;37475;43.358;1.248;2023-06-04T02:45:20;22.05;;;10.95;;
51382;SDS011;37475;43.358;1.248;2023-06-04T02:47:47;18.88;;;11.32;;
51382;SDS011;37475;43.358;1.248;2023-06-04T02:50:13;21.45;;;10.75;;
51382;SDS011;37475;43.358;1.248;2023-06-04T02:52:40;19.48;;;10.73;;
51382;SDS011;37475;43.358;1.248;2023-06-04T02:55:07;18.38;;;10.63;;
51382;SDS011;37475;43.358;1.248;2023-06-04T02:57:38;18.20;;;10.60;;
51382;SDS011;37475;43.358;1.248;2023-06-04T03:00:07;16.85;;;10.57;;
51382;SDS011;37475;43.358;1.248;2023-06-04T03:02:46;18.85;;;10.15;;
51382;SDS011;37475;43.358;1.248;2023-06-04T03:05:14;17.35;;;10.10;;
51382;SDS011;37475;43.358;1.248;2023-06-04T03:07:42;19.95;;;10.57;;
51382;SDS011;37475;43.358;1.248;2023-06-04T03:10:10;17.48;;;10.15;;
51382;SDS011;37475;43.358;1.248;2023-06-04T03:12:37;20.13;;;10.30;;
51382;SDS011;37475;43.358;1.248;2023-06-04T03:15:03;26.05;;;11.52;;
51382;SDS011;37475;43.358;1.248;2023-06-04T03:17:30;15.15;;;9.40;;
51382;SDS011;37475;43.358;1.248;2023-06-04T03:19:57;20.75;;;10.45;;
51382;SDS011;37475;43.358;1.248;2023-06-04T03:22:23;18.30;;;11.25;;
51382;SDS011;37475;43.358;1.248;2023-06-04T03:24:49;19.48;;;11.23;;
51382;SDS011;37475;43.358;1.248;2023-06-04T03:27:15;24.50;;;10.95;;
51382;SDS011;37475;43.358;1.248;2023-06-04T03:29:40;21.65;;;10.85;;
51382;SDS011;37475;43.358;1.248;2023-06-04T03:32:06;18.98;;;11.00;;
51382;SDS011;37475;43.358;1.248;2023-06-04T03:34:33;20.75;;;11.20;;
51382;SDS011;37475;43.358;1.248;2023-06-04T03:36:59;16.73;;;9.30;;
51382;SDS011;37475;43.358;1.248;2023-06-04T03:39:25;16.63;;;9.10;;
51382;SDS011;37475;43.358;1.248;2023-06-04T03:41:51;14.43;;;8.00;;
51382;SDS011;37475;43.358;1.248;2023-06-04T03:44:17;506.48;;;23.55;;
51382;SDS011;37475;43.358;1.248;2023-06-04T03:46:44;15.48;;;10.32;;
51382;SDS011;37475;43.358;1.248;2023-06-04T03:49:10;16.23;;;10.48;;
51382;SDS011;37475;43.358;1.248;2023-06-04T03:51:38;17.15;;;10.48;;
51382;SDS011;37475;43.358;1.248;2023-06-04T03:54:05;22.42;;;11.07;;
51382;SDS011;37475;43.358;1.248;2023-06-04T03:56:31;24.77;;;11.73;;
51382;SDS011;37475;43.358;1.248;2023-06-04T03:58:57;24.67;;;12.10;;
51382;SDS011;37475;43.358;1.248;2023-06-04T04:01:25;28.98;;;11.98;;
51382;SDS011;37475;43.358;1.248;2023-06-04T04:03:51;21.10;;;11.00;;
51382;SDS011;37475;43.358;1.248;2023-06-04T04:06:18;20.60;;;11.07;;
51382;SDS011;37475;43.358;1.248;2023-06-04T04:08:45;19.48;;;10.73;;
51382;SDS011;37475;43.358;1.248;2023-06-04T04:11:11;20.25;;;9.90;;
51382;SDS011;37475;43.358;1.248;2023-06-04T04:13:38;16.65;;;9.63;;
51382;SDS011;37475;43.358;1.248;2023-06-04T04:16:04;20.73;;;10.50;;
51382;SDS011;37475;43.358;1.248;2023-06-04T04:18:34;20.63;;;10.15;;
51382;SDS011;37475;43.358;1.248;2023-06-04T04:21:01;15.32;;;10.40;;
51382;SDS011;37475;43.358;1.248;2023-06-04T04:23:28;22.35;;;10.63;;
51382;SDS011;37475;43.358;1.248;2023-06-04T04:25:55;47.97;;;9.75;;
51382;SDS011;37475;43.358;1.248;2023-06-04T04:28:23;14.48;;;8.35;;
51382;SDS011;37475;43.358;1.248;2023-06-04T04:30:54;21.27;;;9.95;;
51382;SDS011;37475;43.358;1.248;2023-06-04T04:33:21;14.95;;;8.70;;
51382;SDS011;37475;43.358;1.248;2023-06-04T04:35:51;16.52;;;9.43;;
51382;SDS011;37475;43.358;1.248;2023-06-04T04:38:19;15.35;;;9.38;;
51382;SDS011;37475;43.358;1.248;2023-06-04T04:40:48;12.45;;;8.85;;
51382;SDS011;37475;43.358;1.248;2023-06-04T04:43:17;51.85;;;11.25;;
51382;SDS011;37475;43.358;1.248;2023-06-04T04:46:05;160.18;;;15.80;;
51382;SDS011;37475;43.358;1.248;2023-06-04T04:48:31;56.88;;;12.50;;
51382;SDS011;37475;43.358;1.248;2023-06-04T04:50:57;122.18;;;14.32;;
51382;SDS011;37475;43.358;1.248;2023-06-04T04:53:23;135.52;;;14.63;;
51382;SDS011;37475;43.358;1.248;2023-06-04T04:55:49;58.22;;;12.27;;
51382;SDS011;37475;43.358;1.248;2023-06-04T04:58:15;33.03;;;11.52;;
51382;SDS011;37475;43.358;1.248;2023-06-04T05:00:42;26.48;;;11.63;;
51382;SDS011;37475;43.358;1.248;2023-06-04T05:03:08;26.90;;;11.80;;
51382;SDS011;37475;43.358;1.248;2023-06-04T05:05:34;20.70;;;11.63;;
51382;SDS011;37475;43.358;1.248;2023-06-04T05:07:59;20.33;;;10.73;;
51382;SDS011;37475;43.358;1.248;2023-06-04T05:10:25;17.30;;;9.98;;
51382;SDS011;37475;43.358;1.248;2023-06-04T05:12:51;15.50;;;9.93;;
51382;SDS011;37475;43.358;1.248;2023-06-04T05:15:18;17.08;;;9.52;;
51382;SDS011;37475;43.358;1.248;2023-06-04T05:17:45;17.75;;;9.75;;
51382;SDS011;37475;43.358;1.248;2023-06-04T05:20:13;16.00;;;9.98;;
51382;SDS011;37475;43.358;1.248;2023-06-04T05:22:40;23.75;;;10.23;;
51382;SDS011;37475;43.358;1.248;2023-06-04T05:25:08;17.55;;;10.77;;
51382;SDS011;37475;43.358;1.248;2023-06-04T05:27:34;18.13;;;10.15;;
51382;SDS011;37475;43.358;1.248;2023-06-04T05:30:01;15.60;;;9.45;;
51382;SDS011;37475;43.358;1.248;2023-06-04T05:32:30;15.85;;;9.82;;
51382;SDS011;37475;43.358;1.248;2023-06-04T05:34:57;16.85;;;9.57;;
51382;SDS011;37475;43.358;1.248;2023-06-04T05:37:27;15.70;;;9.55;;
51382;SDS011;37475;43.358;1.248;2023-06-04T05:39:53;13.30;;;9.50;;
51382;SDS011;37475;43.358;1.248;2023-06-04T05:42:22;16.95;;;9.70;;
51382;SDS011;37475;43.358;1.248;2023-06-04T05:44:49;15.55;;;9.65;;
51382;SDS011;37475;43.358;1.248;2023-06-04T05:47:15;15.43;;;9.35;;
51382;SDS011;37475;43.358;1.248;2023-06-04T05:49:43;17.92;;;9.02;;
51382;SDS011;37475;43.358;1.248;2023-06-04T05:52:09;12.73;;;8.60;;
51382;SDS011;37475;43.358;1.248;2023-06-04T05:54:35;16.15;;;9.05;;
51382;SDS011;37475;43.358;1.248;2023-06-04T05:57:04;14.20;;;9.20;;
51382;SDS011;37475;43.358;1.248;2023-06-04T05:59:31;12.82;;;8.43;;
51382;SDS011;37475;43.358;1.248;2023-06-04T06:01:57;15.70;;;8.95;;
51382;SDS011;37475;43.358;1.248;2023-06-04T06:04:23;12.73;;;8.32;;
51382;SDS011;37475;43.358;1.248;2023-06-04T06:06:48;14.43;;;7.90;;
51382;SDS011;37475;43.358;1.248;2023-06-04T06:09:15;15.43;;;8.40;;
51382;SDS011;37475;43.358;1.248;2023-06-04T06:11:44;13.02;;;7.60;;
51382;SDS011;37475;43.358;1.248;2023-06-04T06:14:09;13.77;;;8.07;;
51382;SDS011;37475;43.358;1.248;2023-06-04T06:16:35;12.98;;;8.10;;
51382;SDS011;37475;43.358;1.248;2023-06-04T06:19:02;14.25;;;8.23;;
51382;SDS011;37475;43.358;1.248;2023-06-04T06:21:28;13.00;;;8.30;;
51382;SDS011;37475;43.358;1.248;2023-06-04T06:23:54;12.15;;;8.05;;
51382;SDS011;37475;43.358;1.248;2023-06-04T06:26:20;11.50;;;8.18;;
51382;SDS011;37475;43.358;1.248;2023-06-04T06:28:47;15.15;;;8.88;;
51382;SDS011;37475;43.358;1.248;2023-06-04T06:31:12;11.80;;;8.30;;
51382;SDS011;37475;43.358;1.248;2023-06-04T06:33:38;15.32;;;8.90;;
51382;SDS011;37475;43.358;1.248;2023-06-04T06:36:07;11.52;;;8.02;;
51382;SDS011;37475;43.358;1.248;2023-06-04T06:38:38;15.90;;;8.77;;
51382;SDS011;37475;43.358;1.248;2023-06-04T06:41:05;13.70;;;8.02;;
51382;SDS011;37475;43.358;1.248;2023-06-04T06:43:31;12.07;;;6.55;;
51382;SDS011;37475;43.358;1.248;2023-06-04T06:45:58;10.50;;;6.72;;
51382;SDS011;37475;43.358;1.248;2023-06-04T06:48:24;10.65;;;6.50;;
51382;SDS011;37475;43.358;1.248;2023-06-04T06:50:49;12.25;;;6.90;;
51382;SDS011;37475;43.358;1.248;2023-06-04T06:53:15;9.93;;;6.95;;
51382;SDS011;37475;43.358;1.248;2023-06-04T06:55:41;12.57;;;7.32;;
51382;SDS011;37475;43.358;1.248;2023-06-04T06:58:07;11.32;;;7.32;;
51382;SDS011;37475;43.358;1.248;2023-06-04T07:00:33;10.57;;;6.70;;
51382;SDS011;37475;43.358;1.248;2023-06-04T07:02:58;10.52;;;6.35;;
51382;SDS011;37475;43.358;1.248;2023-06-04T07:05:24;12.85;;;6.75;;
51382;SDS011;37475;43.358;1.248;2023-06-04T07:07:50;13.85;;;6.45;;
51382;SDS011;37475;43.358;1.248;2023-06-04T07:10:17;11.07;;;5.40;;
51382;SDS011;37475;43.358;1.248;2023-06-04T07:12:42;9.82;;;6.15;;
51382;SDS011;37475;43.358;1.248;2023-06-04T07:15:08;12.75;;;5.70;;
51382;SDS011;37475;43.358;1.248;2023-06-04T07:17:34;10.55;;;6.13;;
51382;SDS011;37475;43.358;1.248;2023-06-04T07:20:01;9.13;;;5.63;;
51382;SDS011;37475;43.358;1.248;2023-06-04T07:22:28;11.90;;;6.30;;
51382;SDS011;37475;43.358;1.248;2023-06-04T07:24:54;9.45;;;5.50;;
51382;SDS011;37475;43.358;1.248;2023-06-04T07:27:20;9.55;;;5.70;;
51382;SDS011;37475;43.358;1.248;2023-06-04T07:29:47;10.45;;;6.00;;
51382;SDS011;37475;43.358;1.248;2023-06-04T07:32:12;8.65;;;5.80;;
51382;SDS011;37475;43.358;1.248;2023-06-04T07:34:38;7.65;;;5.47;;
51382;SDS011;37475;43.358;1.248;2023-06-04T07:37:04;8.98;;;5.50;;
51382;SDS011;37475;43.358;1.248;2023-06-04T07:39:30;9.55;;;5.90;;
51382;SDS011;37475;43.358;1.248;2023-06-04T07:41:56;9.30;;;5.72;;
51382;SDS011;37475;43.358;1.248;2023-06-04T07:44:22;8.68;;;5.70;;
51382;SDS011;37475;43.358;1.248;2023-06-04T07:46:48;10.25;;;6.00;;
51382;SDS011;37475;43.358;1.248;2023-06-04T07:49:14;9.93;;;5.50;;
51382;SDS011;37475;43.358;1.248;2023-06-04T07:51:40;10.73;;;5.65;;
51382;SDS011;37475;43.358;1.248;2023-06-04T07:54:06;13.05;;;5.53;;
51382;SDS011;37475;43.358;1.248;2023-06-04T07:56:32;10.27;;;5.88;;
51382;SDS011;37475;43.358;1.248;2023-06-04T07:58:58;10.35;;;5.68;;
51382;SDS011;37475;43.358;1.248;2023-06-04T08:01:23;8.90;;;5.68;;
51382;SDS011;37475;43.358;1.248;2023-06-04T08:03:49;8.48;;;5.40;;
51382;SDS011;37475;43.358;1.248;2023-06-04T08:06:15;8.98;;;4.65;;
51382;SDS011;37475;43.358;1.248;2023-06-04T08:08:45;7.90;;;5.00;;
51382;SDS011;37475;43.358;1.248;2023-06-04T08:11:13;7.47;;;4.75;;
51382;SDS011;37475;43.358;1.248;2023-06-04T08:13:40;8.43;;;5.10;;
51382;SDS011;37475;43.358;1.248;2023-06-04T08:16:06;7.10;;;4.40;;
51382;SDS011;37475;43.358;1.248;2023-06-04T08:18:37;7.28;;;4.28;;
51382;SDS011;37475;43.358;1.248;2023-06-04T08:21:08;8.75;;;4.88;;
51382;SDS011;37475;43.358;1.248;2023-06-04T08:23:36;6.97;;;4.30;;
51382;SDS011;37475;43.358;1.248;2023-06-04T08:26:02;9.63;;;4.45;;
51382;SDS011;37475;43.358;1.248;2023-06-04T08:28:27;8.07;;;4.40;;
51382;SDS011;37475;43.358;1.248;2023-06-04T08:30:53;6.78;;;4.40;;
51382;SDS011;37475;43.358;1.248;2023-06-04T08:33:19;9.05;;;4.70;;
51382;SDS011;37475;43.358;1.248;2023-06-04T08:35:45;7.15;;;4.55;;
51382;SDS011;37475;43.358;1.248;2023-06-04T08:38:11;7.57;;;4.70;;
51382;SDS011;37475;43.358;1.248;2023-06-04T08:40:37;9.38;;;4.30;;
51382;SDS011;37475;43.358;1.248;2023-06-04T08:43:03;7.38;;;4.50;;
51382;SDS011;37475;43.358;1.248;2023-06-04T08:45:31;7.25;;;4.55;;
51382;SDS011;37475;43.358;1.248;2023-06-04T08:47:58;9.15;;;4.57;;
51382;SDS011;37475;43.358;1.248;2023-06-04T08:50:25;9.77;;;5.15;;
51382;SDS011;37475;43.358;1.248;2023-06-04T08:52:55;7.65;;;4.38;;
51382;SDS011;37475;43.358;1.248;2023-06-04T08:55:21;6.93;;;4.65;;
51382;SDS011;37475;43.358;1.248;2023-06-04T08:57:50;7.28;;;4.40;;
51382;SDS011;37475;43.358;1.248;2023-06-04T09:00:17;6.40;;;3.90;;
51382;SDS011;37475;43.358;1.248;2023-06-04T09:02:44;6.97;;;4.20;;
51382;SDS011;37475;43.358;1.248;2023-06-04T09:05:14;7.40;;;4.57;;
51382;SDS011;37475;43.358;1.248;2023-06-04T09:07:45;6.78;;;4.45;;
51382;SDS011;37475;43.358;1.248;2023-06-04T09:10:12;11.10;;;4.57;;
51382;SDS011;37475;43.358;1.248;2023-06-04T09:12:43;8.05;;;4.70;;
51382;SDS011;37475;43.358;1.248;2023-06-04T09:15:12;6.70;;;4.57;;
51382;SDS011;37475;43.358;1.248;2023-06-04T09:17:38;8.10;;;4.40;;
51382;SDS011;37475;43.358;1.248;2023-06-04T09:20:04;6.80;;;4.53;;
51382;SDS011;37475;43.358;1.248;2023-06-04T09:22:34;6.72;;;4.15;;
51382;SDS011;37475;43.358;1.248;2023-06-04T09:25:03;7.25;;;4.07;;
51382;SDS011;37475;43.358;1.248;2023-06-04T09:27:39;5.75;;;3.97;;
51382;SDS011;37475;43.358;1.248;2023-06-04T09:30:05;6.07;;;4.25;;
51382;SDS011;37475;43.358;1.248;2023-06-04T09:32:34;7.10;;;4.20;;
51382;SDS011;37475;43.358;1.248;2023-06-04T09:35:13;6.43;;;4.25;;
51382;SDS011;37475;43.358;1.248;2023-06-04T09:37:42;6.75;;;4.60;;
51382;SDS011;37475;43.358;1.248;2023-06-04T09:40:17;5.78;;;4.03;;
51382;SDS011;37475;43.358;1.248;2023-06-04T09:42:47;7.15;;;4.45;;
51382;SDS011;37475;43.358;1.248;2023-06-04T09:45:34;8.07;;;4.35;;
51382;SDS011;37475;43.358;1.248;2023-06-04T09:48:01;6.32;;;4.03;;
51382;SDS011;37475;43.358;1.248;2023-06-04T09:50:30;6.40;;;4.50;;
51382;SDS011;37475;43.358;1.248;2023-06-04T09:52:58;8.13;;;4.47;;
51382;SDS011;37475;43.358;1.248;2023-06-04T09:55:25;6.72;;;4.28;;
51382;SDS011;37475;43.358;1.248;2023-06-04T09:57:51;7.28;;;4.40;;
51382;SDS011;37475;43.358;1.248;2023-06-04T10:00:23;8.82;;;4.45;;
51382;SDS011;37475;43.358;1.248;2023-06-04T10:02:58;7.30;;;4.43;;
51382;SDS011;37475;43.358;1.248;2023-06-04T10:05:30;10.38;;;4.65;;
51382;SDS011;37475;43.358;1.248;2023-06-04T10:07:59;7.53;;;4.15;;
51382;SDS011;37475;43.358;1.248;2023-06-04T10:10:30;8.25;;;4.60;;
51382;SDS011;37475;43.358;1.248;2023-06-04T10:13:00;6.95;;;3.95;;
51382;SDS011;37475;43.358;1.248;2023-06-04T10:15:31;7.10;;;3.55;;
51382;SDS011;37475;43.358;1.248;2023-06-04T10:17:59;7.28;;;3.70;;
51382;SDS011;37475;43.358;1.248;2023-06-04T10:20:27;6.45;;;3.70;;
51382;SDS011;37475;43.358;1.248;2023-06-04T10:22:53;6.35;;;4.03;;
51382;SDS011;37475;43.358;1.248;2023-06-04T10:25:20;7.90;;;3.88;;
51382;SDS011;37475;43.358;1.248;2023-06-04T10:27:46;5.47;;;3.53;;
51382;SDS011;37475;43.358;1.248;2023-06-04T10:30:12;6.93;;;3.75;;
51382;SDS011;37475;43.358;1.248;2023-06-04T10:32:38;5.88;;;3.80;;
51382;SDS011;37475;43.358;1.248;2023-06-04T10:35:04;7.45;;;3.78;;
51382;SDS011;37475;43.358;1.248;2023-06-04T10:37:32;4.80;;;3.35;;
51382;SDS011;37475;43.358;1.248;2023-06-04T10:39:59;5.57;;;3.85;;
51382;SDS011;37475;43.358;1.248;2023-06-04T10:42:25;5.53;;;3.38;;
51382;SDS011;37475;43.358;1.248;2023-06-04T10:44:52;6.47;;;3.50;;
51382;SDS011;37475;43.358;1.248;2023-06-04T10:47:27;6.78;;;3.85;;
51382;SDS011;37475;43.358;1.248;2023-06-04T10:50:06;6.47;;;3.40;;
51382;SDS011;37475;43.358;1.248;2023-06-04T10:52:37;5.35;;;2.80;;
51382;SDS011;37475;43.358;1.248;2023-06-04T10:55:05;4.75;;;2.88;;
51382;SDS011;37475;43.358;1.248;2023-06-04T10:57:33;6.40;;;2.95;;
51382;SDS011;37475;43.358;1.248;2023-06-04T11:00:00;5.50;;;3.22;;
51382;SDS011;37475;43.358;1.248;2023-06-04T11:02:30;5.43;;;2.90;;
51382;SDS011;37475;43.358;1.248;2023-06-04T11:05:00;5.35;;;3.17;;
51382;SDS011;37475;43.358;1.248;2023-06-04T11:07:44;5.55;;;3.05;;
51382;SDS011;37475;43.358;1.248;2023-06-04T11:10:13;6.03;;;2.97;;
51382;SDS011;37475;43.358;1.248;2023-06-04T11:12:42;5.88;;;3.40;;
51382;SDS011;37475;43.358;1.248;2023-06-04T11:15:15;6.50;;;3.28;;
51382;SDS011;37475;43.358;1.248;2023-06-04T11:17:55;5.68;;;3.30;;
51382;SDS011;37475;43.358;1.248;2023-06-04T11:20:23;5.03;;;3.25;;
51382;SDS011;37475;43.358;1.248;2023-06-04T11:22:56;5.93;;;3.20;;
51382;SDS011;37475;43.358;1.248;2023-06-04T11:25:25;10.75;;;3.10;;
51382;SDS011;37475;43.358;1.248;2023-06-04T11:27:52;6.63;;;2.97;;
51382;SDS011;37475;43.358;1.248;2023-06-04T11:30:19;8.35;;;2.60;;
51382;SDS011;37475;43.358;1.248;2023-06-04T11:32:45;3.85;;;2.72;;
51382;SDS011;37475;43.358;1.248;2023-06-04T11:35:11;3.78;;;2.60;;
51382;SDS011;37475;43.358;1.248;2023-06-04T11:37:37;4.13;;;2.60;;
51382;SDS011;37475;43.358;1.248;2023-06-04T11:40:17;5.05;;;2.83;;
51382;SDS011;37475;43.358;1.248;2023-06-04T11:42:44;8.55;;;2.67;;
51382;SDS011;37475;43.358;1.248;2023-06-04T11:45:15;4.70;;;2.55;;
51382;SDS011;37475;43.358;1.248;2023-06-04T11:47:47;4.65;;;2.33;;
51382;SDS011;37475;43.358;1.248;2023-06-04T11:50:14;4.50;;;2.70;;
51382;SDS011;37475;43.358;1.248;2023-06-04T11:52:40;5.50;;;2.67;;
51382;SDS011;37475;43.358;1.248;2023-06-04T11:55:10;4.95;;;2.53;;
51382;SDS011;37475;43.358;1.248;2023-06-04T11:57:37;4.97;;;2.65;;
51382;SDS011;37475;43.358;1.248;2023-06-04T12:00:05;5.07;;;2.40;;
51382;SDS011;37475;43.358;1.248;2023-06-04T12:02:38;4.25;;;2.25;;
51382;SDS011;37475;43.358;1.248;2023-06-04T12:05:33;4.53;;;2.60;;
51382;SDS011;37475;43.358;1.248;2023-06-04T12:10:39;3.63;;;2.22;;
51382;SDS011;37475;43.358;1.248;2023-06-04T12:13:07;5.07;;;2.15;;
51382;SDS011;37475;43.358;1.248;2023-06-04T12:15:33;4.28;;;2.40;;
51382;SDS011;37475;43.358;1.248;2023-06-04T12:17:59;7.18;;;2.83;;
51382;SDS011;37475;43.358;1.248;2023-06-04T12:20:35;4.95;;;2.38;;
51382;SDS011;37475;43.358;1.248;2023-06-04T12:23:05;4.65;;;2.70;;
51382;SDS011;37475;43.358;1.248;2023-06-04T12:25:32;3.92;;;2.30;;
51382;SDS011;37475;43.358;1.248;2023-06-04T12:27:59;3.80;;;2.00;;
51382;SDS011;37475;43.358;1.248;2023-06-04T12:30:36;6.20;;;2.10;;
51382;SDS011;37475;43.358;1.248;2023-06-04T12:33:04;4.40;;;2.33;;
51382;SDS011;37475;43.358;1.248;2023-06-04T12:35:30;6.20;;;2.20;;
51382;SDS011;37475;43.358;1.248;2023-06-04T12:37:55;5.35;;;2.40;;
51382;SDS011;37475;43.358;1.248;2023-06-04T12:40:21;4.88;;;2.10;;
51382;SDS011;37475;43.358;1.248;2023-06-04T12:42:49;5.13;;;2.50;;
51382;SDS011;37475;43.358;1.248;2023-06-04T12:45:16;4.65;;;2.58;;
51382;SDS011;37475;43.358;1.248;2023-06-04T12:47:42;5.65;;;2.33;;
51382;SDS011;37475;43.358;1.248;2023-06-04T12:50:08;4.65;;;2.47;;
51382;SDS011;37475;43.358;1.248;2023-06-04T12:52:34;4.18;;;2.22;;
51382;SDS011;37475;43.358;1.248;2023-06-04T12:55:01;4.00;;;2.55;;
51382;SDS011;37475;43.358;1.248;2023-06-04T12:57:26;4.95;;;2.33;;
51382;SDS011;37475;43.358;1.248;2023-06-04T12:59:52;3.78;;;2.60;;
51382;SDS011;37475;43.358;1.248;2023-06-04T13:02:18;4.38;;;2.50;;
51382;SDS011;37475;43.358;1.248;2023-06-04T13:04:44;5.28;;;2.60;;
51382;SDS011;37475;43.358;1.248;2023-06-04T13:07:11;6.10;;;2.30;;
51382;SDS011;37475;43.358;1.248;2023-06-04T13:09:37;4.70;;;2.40;;
51382;SDS011;37475;43.358;1.248;2023-06-04T13:12:03;3.55;;;1.98;;
51382;SDS011;37475;43.358;1.248;2023-06-04T13:14:31;4.82;;;2.40;;
51382;SDS011;37475;43.358;1.248;2023-06-04T13:16:58;3.17;;;2.00;;
51382;SDS011;37475;43.358;1.248;2023-06-04T13:19:25;4.43;;;2.20;;
51382;SDS011;37475;43.358;1.248;2023-06-04T13:21:50;5.30;;;2.30;;
51382;SDS011;37475;43.358;1.248;2023-06-04T13:24:16;4.40;;;2.15;;
51382;SDS011;37475;43.358;1.248;2023-06-04T13:26:42;3.25;;;2.08;;
51382;SDS011;37475;43.358;1.248;2023-06-04T13:29:08;3.92;;;2.10;;
51382;SDS011;37475;43.358;1.248;2023-06-04T13:31:34;2.80;;;1.80;;
51382;SDS011;37475;43.358;1.248;2023-06-04T13:34:00;3.20;;;1.90;;
51382;SDS011;37475;43.358;1.248;2023-06-04T13:36:25;3.80;;;1.85;;
51382;SDS011;37475;43.358;1.248;2023-06-04T13:38:52;3.25;;;1.70;;
51382;SDS011;37475;43.358;1.248;2023-06-04T13:41:19;4.65;;;1.88;;
51382;SDS011;37475;43.358;1.248;2023-06-04T13:43:46;4.35;;;1.83;;
51382;SDS011;37475;43.358;1.248;2023-06-04T13:46:11;4.47;;;1.70;;
51382;SDS011;37475;43.358;1.248;2023-06-04T13:48:37;4.90;;;2.10;;
51382;SDS011;37475;43.358;1.248;2023-06-04T13:51:03;2.88;;;1.90;;
51382;SDS011;37475;43.358;1.248;2023-06-04T13:53:29;3.88;;;1.75;;
51382;SDS011;37475;43.358;1.248;2023-06-04T13:55:55;3.00;;;1.80;;
51382;SDS011;37475;43.358;1.248;2023-06-04T13:58:23;4.95;;;1.88;;
51382;SDS011;37475;43.358;1.248;2023-06-04T14:00:52;2.60;;;1.60;;
51382;SDS011;37475;43.358;1.248;2023-06-04T14:03:18;4.05;;;1.90;;
51382;SDS011;37475;43.358;1.248;2023-06-04T14:05:44;5.35;;;2.00;;
51382;SDS011;37475;43.358;1.248;2023-06-04T14:08:10;2.92;;;1.90;;
51382;SDS011;37475;43.358;1.248;2023-06-04T14:10:37;3.58;;;1.83;;
51382;SDS011;37475;43.358;1.248;2023-06-04T14:13:06;3.28;;;1.60;;
51382;SDS011;37475;43.358;1.248;2023-06-04T14:15:33;4.47;;;1.70;;
51382;SDS011;37475;43.358;1.248;2023-06-04T14:17:58;2.75;;;1.52;;
51382;SDS011;37475;43.358;1.248;2023-06-04T14:20:25;3.45;;;1.42;;
51382;SDS011;37475;43.358;1.248;2023-06-04T14:22:50;2.90;;;1.58;;
51382;SDS011;37475;43.358;1.248;2023-06-04T14:25:16;2.53;;;1.33;;
51382;SDS011;37475;43.358;1.248;2023-06-04T14:27:42;5.05;;;1.50;;
51382;SDS011;37475;43.358;1.248;2023-06-04T14:30:08;3.10;;;1.60;;
51382;SDS011;37475;43.358;1.248;2023-06-04T14:32:35;3.03;;;1.40;;
51382;SDS011;37475;43.358;1.248;2023-06-04T14:35:01;3.10;;;1.55;;
51382;SDS011;37475;43.358;1.248;2023-06-04T14:37:27;4.13;;;1.50;;
51382;SDS011;37475;43.358;1.248;2023-06-04T14:39:52;4.35;;;1.40;;
51382;SDS011;37475;43.358;1.248;2023-06-04T14:42:18;3.25;;;1.70;;
51382;SDS011;37475;43.358;1.248;2023-06-04T14:44:45;2.92;;;1.65;;